Weather at Bouthillier Airport

Public forecast

Using degrees Celsius for public forecast. Weather courtesy of forecast.io.

Closest aviation weather report (METAR) to Bouthillier Airport

Closest report is Montréal / Saint-Hubert Airport, 5.4 nm (10.0 km) WNW.

2024/05/21 01:00 (retrieved 36 minutes ago)

CYHU 210100Z AUTO 21005KT 9SM FEW190 BKN210 24/14 A2986 RMK SLP112 DENSITY ALT 1300FT

Closest aviation forecast (TAF) to Bouthillier Airport

Closest forecast is Trois-Rivières Airport, 58.6 nm (108.5 km) NNE.

2024/05/20 20:00 (retrieved 6 hours ago)

TAF CYRQ 201951Z 2020/2108 21010G20KT P6SM FEW060 BKN180 TEMPO 2020/2024 P6SM -SHRA BKN060 FM210100 31005KT P6SM SCT150 RMK FCST BASED ON AUTO OBS NXT FCST BY 210200Z